sensor_id;sensor_type;location;lat;lon;timestamp;pressure;altitude;pressure_sealevel;temperature;humidity
54816;BME280;40715;55.752;37.884;2023-03-17T00:01:45;99163.31;;;29.09;26.77
54816;BME280;40715;55.752;37.884;2023-03-17T00:04:17;99167.91;;;29.09;26.63
54816;BME280;40715;55.752;37.884;2023-03-17T00:06:45;99156.69;;;29.04;26.70
54816;BME280;40715;55.752;37.884;2023-03-17T00:09:15;99166.03;;;29.09;26.63
54816;BME280;40715;55.752;37.884;2023-03-17T00:11:43;99158.91;;;29.08;26.65
54816;BME280;40715;55.752;37.884;2023-03-17T00:14:11;99172.28;;;29.10;26.78
54816;BME280;40715;55.752;37.884;2023-03-17T00:16:41;99177.88;;;29.08;26.65
54816;BME280;40715;55.752;37.884;2023-03-17T00:19:29;99180.00;;;29.23;26.54
54816;BME280;40715;55.752;37.884;2023-03-17T00:21:59;99170.63;;;29.09;26.76
54816;BME280;40715;55.752;37.884;2023-03-17T00:24:27;99183.31;;;29.08;26.62
54816;BME280;40715;55.752;37.884;2023-03-17T00:26:54;99177.72;;;29.10;26.58
54816;BME280;40715;55.752;37.884;2023-03-17T00:29:22;99187.91;;;29.08;26.65
54816;BME280;40715;55.752;37.884;2023-03-17T00:31:49;99185.84;;;29.10;26.67
54816;BME280;40715;55.752;37.884;2023-03-17T00:34:17;99191.44;;;29.08;26.76
54816;BME280;40715;55.752;37.884;2023-03-17T00:36:45;99183.63;;;29.05;26.85
54816;BME280;40715;55.752;37.884;2023-03-17T00:39:14;99195.19;;;29.07;26.59
54816;BME280;40715;55.752;37.884;2023-03-17T00:41:41;99192.47;;;29.07;26.69
54816;BME280;40715;55.752;37.884;2023-03-17T00:44:09;99187.19;;;29.06;26.66
54816;BME280;40715;55.752;37.884;2023-03-17T00:46:38;99178.22;;;29.05;26.59
54816;BME280;40715;55.752;37.884;2023-03-17T00:49:19;99189.09;;;29.14;26.56
54816;BME280;40715;55.752;37.884;2023-03-17T00:51:48;99188.72;;;29.08;26.59
54816;BME280;40715;55.752;37.884;2023-03-17T00:54:16;99191.59;;;29.07;26.82
54816;BME280;40715;55.752;37.884;2023-03-17T00:56:43;99193.47;;;29.06;26.52
54816;BME280;40715;55.752;37.884;2023-03-17T00:59:19;99195.03;;;29.09;26.74
54816;BME280;40715;55.752;37.884;2023-03-17T01:01:47;99196.41;;;29.13;26.59
54816;BME280;40715;55.752;37.884;2023-03-17T01:04:14;99195.66;;;29.03;26.52
54816;BME280;40715;55.752;37.884;2023-03-17T01:06:41;99204.16;;;29.08;26.67
54816;BME280;40715;55.752;37.884;2023-03-17T01:09:12;99209.75;;;29.06;26.91
54816;BME280;40715;55.752;37.884;2023-03-17T01:11:40;99208.06;;;29.05;26.37
54816;BME280;40715;55.752;37.884;2023-03-17T01:14:09;99215.19;;;29.06;26.70
54816;BME280;40715;55.752;37.884;2023-03-17T01:16:37;99210.09;;;29.03;26.74
54816;BME280;40715;55.752;37.884;2023-03-17T01:19:04;99226.69;;;29.08;26.61
54816;BME280;40715;55.752;37.884;2023-03-17T01:21:32;99226.88;;;29.07;26.74
54816;BME280;40715;55.752;37.884;2023-03-17T01:23:58;99231.44;;;29.06;26.55
54816;BME280;40715;55.752;37.884;2023-03-17T01:26:26;99226.19;;;29.05;26.64
54816;BME280;40715;55.752;37.884;2023-03-17T01:28:53;99228.91;;;29.05;26.67
54816;BME280;40715;55.752;37.884;2023-03-17T01:31:20;99240.59;;;29.05;26.73
54816;BME280;40715;55.752;37.884;2023-03-17T01:33:48;99243.13;;;29.07;26.69
54816;BME280;40715;55.752;37.884;2023-03-17T01:36:17;99252.16;;;29.07;26.71
54816;BME280;40715;55.752;37.884;2023-03-17T01:38:43;99250.44;;;29.06;26.45
54816;BME280;40715;55.752;37.884;2023-03-17T01:41:13;99263.13;;;29.06;26.75
54816;BME280;40715;55.752;37.884;2023-03-17T01:43:40;99269.41;;;29.06;26.75
54816;BME280;40715;55.752;37.884;2023-03-17T01:46:33;99278.28;;;29.17;26.68
54816;BME280;40715;55.752;37.884;2023-03-17T01:51:45;99276.56;;;29.07;26.67
54816;BME280;40715;55.752;37.884;2023-03-17T01:54:18;99286.53;;;29.07;26.69
54816;BME280;40715;55.752;37.884;2023-03-17T01:56:49;99276.69;;;29.06;26.68
54816;BME280;40715;55.752;37.884;2023-03-17T01:59:21;99297.53;;;29.05;26.65
54816;BME280;40715;55.752;37.884;2023-03-17T02:01:51;99295.66;;;29.06;26.82
54816;BME280;40715;55.752;37.884;2023-03-17T02:04:20;99295.66;;;29.06;26.59
54816;BME280;40715;55.752;37.884;2023-03-17T02:06:48;99288.56;;;29.05;26.83
54816;BME280;40715;55.752;37.884;2023-03-17T02:09:25;99291.63;;;29.10;26.67
54816;BME280;40715;55.752;37.884;2023-03-17T02:11:52;99301.09;;;29.06;26.71
54816;BME280;40715;55.752;37.884;2023-03-17T02:14:20;99298.38;;;29.06;26.68
54816;BME280;40715;55.752;37.884;2023-03-17T02:16:47;99295.66;;;29.06;26.71
54816;BME280;40715;55.752;37.884;2023-03-17T02:19:15;99294.84;;;29.05;26.60
54816;BME280;40715;55.752;37.884;2023-03-17T02:21:47;99292.28;;;29.04;26.79
54816;BME280;40715;55.752;37.884;2023-03-17T02:24:32;99296.38;;;29.08;26.61
54816;BME280;40715;55.752;37.884;2023-03-17T02:27:09;99308.06;;;29.08;26.67
54816;BME280;40715;55.752;37.884;2023-03-17T02:29:38;99308.41;;;29.05;26.75
54816;BME280;40715;55.752;37.884;2023-03-17T02:32:06;99290.91;;;29.00;26.58
54816;BME280;40715;55.752;37.884;2023-03-17T02:34:34;99297.53;;;29.05;26.45
54816;BME280;40715;55.752;37.884;2023-03-17T02:37:01;99302.97;;;29.05;26.73
54816;BME280;40715;55.752;37.884;2023-03-17T02:39:28;99299.25;;;29.06;26.41
54816;BME280;40715;55.752;37.884;2023-03-17T02:41:55;99298.25;;;29.07;26.67
54816;BME280;40715;55.752;37.884;2023-03-17T02:44:22;99300.63;;;29.10;26.71
54816;BME280;40715;55.752;37.884;2023-03-17T02:46:49;99297.75;;;29.12;26.62
54816;BME280;40715;55.752;37.884;2023-03-17T02:49:16;99300.63;;;29.10;26.56
54816;BME280;40715;55.752;37.884;2023-03-17T02:51:44;99311.16;;;29.14;26.66
54816;BME280;40715;55.752;37.884;2023-03-17T02:54:11;99311.84;;;29.16;27.03
54816;BME280;40715;55.752;37.884;2023-03-17T02:56:38;99313.03;;;29.13;27.31
54816;BME280;40715;55.752;37.884;2023-03-17T02:59:05;99326.25;;;29.16;27.70
54816;BME280;40715;55.752;37.884;2023-03-17T03:01:33;99331.53;;;29.18;27.95
54816;BME280;40715;55.752;37.884;2023-03-17T03:04:00;99341.22;;;29.20;28.26
54816;BME280;40715;55.752;37.884;2023-03-17T03:06:27;99353.44;;;29.24;28.45
54816;BME280;40715;55.752;37.884;2023-03-17T03:08:54;99359.31;;;29.20;28.73
54816;BME280;40715;55.752;37.884;2023-03-17T03:11:20;99358.72;;;29.26;28.91
54816;BME280;40715;55.752;37.884;2023-03-17T03:13:47;99376.84;;;29.25;29.18
54816;BME280;40715;55.752;37.884;2023-03-17T03:16:14;99386.53;;;29.28;29.39
54816;BME280;40715;55.752;37.884;2023-03-17T03:18:42;99395.53;;;29.29;29.45
54816;BME280;40715;55.752;37.884;2023-03-17T03:21:09;99389.25;;;29.28;29.53
54816;BME280;40715;55.752;37.884;2023-03-17T03:23:36;99384.66;;;29.29;29.58
54816;BME280;40715;55.752;37.884;2023-03-17T03:26:03;99391.63;;;29.31;29.71
54816;BME280;40715;55.752;37.884;2023-03-17T03:28:30;99392.50;;;29.32;29.67
54816;BME280;40715;55.752;37.884;2023-03-17T03:30:57;99404.03;;;29.34;29.49
54816;BME280;40715;55.752;37.884;2023-03-17T03:33:24;99398.94;;;29.31;29.51
54816;BME280;40715;55.752;37.884;2023-03-17T03:35:51;99417.44;;;29.35;29.74
54816;BME280;40715;55.752;37.884;2023-03-17T03:38:18;99423.88;;;29.34;29.70
54816;BME280;40715;55.752;37.884;2023-03-17T03:40:45;99411.50;;;29.32;29.49
54816;BME280;40715;55.752;37.884;2023-03-17T03:43:12;99421.88;;;29.36;29.48
54816;BME280;40715;55.752;37.884;2023-03-17T03:45:49;99415.28;;;29.39;29.38
54816;BME280;40715;55.752;37.884;2023-03-17T03:48:16;99435.44;;;29.36;29.61
54816;BME280;40715;55.752;37.884;2023-03-17T03:50:43;99435.59;;;29.35;29.31
54816;BME280;40715;55.752;37.884;2023-03-17T03:53:10;99435.75;;;29.33;29.23
54816;BME280;40715;55.752;37.884;2023-03-17T03:55:36;99436.06;;;29.30;29.25
54816;BME280;40715;55.752;37.884;2023-03-17T03:58:03;99435.22;;;29.30;29.16
54816;BME280;40715;55.752;37.884;2023-03-17T04:00:31;99441.47;;;29.30;29.13
54816;BME280;40715;55.752;37.884;2023-03-17T04:02:59;99433.50;;;29.29;29.03
54816;BME280;40715;55.752;37.884;2023-03-17T04:05:26;99437.09;;;29.29;28.91
54816;BME280;40715;55.752;37.884;2023-03-17T04:07:53;99435.22;;;29.30;28.74
54816;BME280;40715;55.752;37.884;2023-03-17T04:10:20;99429.94;;;29.28;28.99
54816;BME280;40715;55.752;37.884;2023-03-17T04:12:46;99440.97;;;29.26;28.90
54816;BME280;40715;55.752;37.884;2023-03-17T04:15:15;99442.84;;;29.26;28.91
54816;BME280;40715;55.752;37.884;2023-03-17T04:17:42;99464.38;;;29.27;28.84
54816;BME280;40715;55.752;37.884;2023-03-17T04:20:12;99461.84;;;29.26;28.92
54816;BME280;40715;55.752;37.884;2023-03-17T04:22:40;99470.09;;;29.24;29.03
54816;BME280;40715;55.752;37.884;2023-03-17T04:25:09;99464.13;;;29.21;28.92
54816;BME280;40715;55.752;37.884;2023-03-17T04:27:37;99468.25;;;29.25;28.80
54816;BME280;40715;55.752;37.884;2023-03-17T04:30:05;99467.53;;;29.23;28.77
54816;BME280;40715;55.752;37.884;2023-03-17T04:32:32;99473.69;;;29.25;28.94
54816;BME280;40715;55.752;37.884;2023-03-17T04:34:59;99473.09;;;29.21;28.60
54816;BME280;40715;55.752;37.884;2023-03-17T04:37:26;99490.97;;;29.24;28.65
54816;BME280;40715;55.752;37.884;2023-03-17T04:39:53;99489.25;;;29.23;28.87
54816;BME280;40715;55.752;37.884;2023-03-17T04:42:21;99501.81;;;29.24;28.66
54816;BME280;40715;55.752;37.884;2023-03-17T04:44:48;99508.53;;;29.20;28.69
54816;BME280;40715;55.752;37.884;2023-03-17T04:47:15;99518.22;;;29.22;28.78
54816;BME280;40715;55.752;37.884;2023-03-17T04:49:42;99522.81;;;29.22;28.71
54816;BME280;40715;55.752;37.884;2023-03-17T04:52:09;99525.69;;;29.20;28.91
54816;BME280;40715;55.752;37.884;2023-03-17T04:54:36;99532.09;;;29.19;28.54
54816;BME280;40715;55.752;37.884;2023-03-17T04:57:03;99542.63;;;29.22;28.55
54816;BME280;40715;55.752;37.884;2023-03-17T04:59:30;99540.50;;;29.26;28.52
54816;BME280;40715;55.752;37.884;2023-03-17T05:01:57;99539.63;;;29.25;28.34
54816;BME280;40715;55.752;37.884;2023-03-17T05:04:24;99543.06;;;29.27;28.38
54816;BME280;40715;55.752;37.884;2023-03-17T05:06:57;99540.34;;;29.27;28.22
54816;BME280;40715;55.752;37.884;2023-03-17T05:09:25;99546.06;;;29.24;28.29
54816;BME280;40715;55.752;37.884;2023-03-17T05:11:54;99543.22;;;29.26;28.26
54816;BME280;40715;55.752;37.884;2023-03-17T05:14:21;99550.50;;;29.25;28.23
54816;BME280;40715;55.752;37.884;2023-03-17T05:16:49;99544.22;;;29.25;28.31
54816;BME280;40715;55.752;37.884;2023-03-17T05:19:16;99565.75;;;29.26;28.25
54816;BME280;40715;55.752;37.884;2023-03-17T05:21:44;99568.78;;;29.23;28.29
54816;BME280;40715;55.752;37.884;2023-03-17T05:24:11;99577.47;;;29.27;28.26
54816;BME280;40715;55.752;37.884;2023-03-17T05:26:38;99573.19;;;29.24;28.04
54816;BME280;40715;55.752;37.884;2023-03-17T05:29:06;99585.75;;;29.25;28.02
54816;BME280;40715;55.752;37.884;2023-03-17T05:31:34;99593.06;;;29.25;27.84
54816;BME280;40715;55.752;37.884;2023-03-17T05:34:03;99586.75;;;29.24;28.25
54816;BME280;40715;55.752;37.884;2023-03-17T05:36:31;99594.59;;;29.27;28.17
54816;BME280;40715;55.752;37.884;2023-03-17T05:38:59;99599.00;;;29.29;28.06
54816;BME280;40715;55.752;37.884;2023-03-17T05:41:26;99587.19;;;29.20;28.09
54816;BME280;40715;55.752;37.884;2023-03-17T05:43:53;99594.34;;;29.21;28.01
54816;BME280;40715;55.752;37.884;2023-03-17T05:46:21;99596.91;;;29.22;27.96
54816;BME280;40715;55.752;37.884;2023-03-17T05:48:48;99605.31;;;29.29;27.90
54816;BME280;40715;55.752;37.884;2023-03-17T05:51:15;99610.72;;;29.29;28.10
54816;BME280;40715;55.752;37.884;2023-03-17T05:53:42;99613.28;;;29.31;28.04
54816;BME280;40715;55.752;37.884;2023-03-17T05:56:09;99615.00;;;29.32;28.03
54816;BME280;40715;55.752;37.884;2023-03-17T05:58:36;99612.41;;;29.30;28.12
54816;BME280;40715;55.752;37.884;2023-03-17T06:01:03;99616.84;;;29.31;27.97
54816;BME280;40715;55.752;37.884;2023-03-17T06:03:31;99625.69;;;29.33;28.21
54816;BME280;40715;55.752;37.884;2023-03-17T06:05:58;99617.56;;;29.33;28.01
54816;BME280;40715;55.752;37.884;2023-03-17T06:08:25;99623.81;;;29.34;28.27
54816;BME280;40715;55.752;37.884;2023-03-17T06:10:52;99633.69;;;29.35;28.06
54816;BME280;40715;55.752;37.884;2023-03-17T06:13:19;99621.44;;;29.31;28.17
54816;BME280;40715;55.752;37.884;2023-03-17T06:15:47;99637.41;;;29.34;28.35
54816;BME280;40715;55.752;37.884;2023-03-17T06:18:15;99637.41;;;29.34;28.20
54816;BME280;40715;55.752;37.884;2023-03-17T06:20:42;99640.94;;;29.34;28.30
54816;BME280;40715;55.752;37.884;2023-03-17T06:23:09;99639.25;;;29.33;28.46
54816;BME280;40715;55.752;37.884;2023-03-17T06:25:36;99617.75;;;29.22;28.10
54816;BME280;40715;55.752;37.884;2023-03-17T06:28:04;99635.53;;;29.34;28.27
54816;BME280;40715;55.752;37.884;2023-03-17T06:30:33;99634.53;;;29.35;28.32
54816;BME280;40715;55.752;37.884;2023-03-17T06:33:01;99638.06;;;29.36;28.09
54816;BME280;40715;55.752;37.884;2023-03-17T06:35:28;99639.78;;;29.37;28.26
54816;BME280;40715;55.752;37.884;2023-03-17T06:37:56;99637.06;;;29.37;28.15
54816;BME280;40715;55.752;37.884;2023-03-17T06:40:23;99641.50;;;29.38;28.12
54816;BME280;40715;55.752;37.884;2023-03-17T06:42:50;99646.38;;;29.34;28.01
54816;BME280;40715;55.752;37.884;2023-03-17T06:45:17;99653.19;;;29.38;28.04
54816;BME280;40715;55.752;37.884;2023-03-17T06:47:44;99648.66;;;29.39;28.09
54816;BME280;40715;55.752;37.884;2023-03-17T06:50:12;99647.63;;;29.40;28.21
54816;BME280;40715;55.752;37.884;2023-03-17T06:52:40;99653.91;;;29.40;28.08
54816;BME280;40715;55.752;37.884;2023-03-17T06:55:11;99652.84;;;29.33;28.02
54816;BME280;40715;55.752;37.884;2023-03-17T06:57:39;99626.13;;;29.10;28.15
54816;BME280;40715;55.752;37.884;2023-03-17T07:00:08;99672.75;;;29.42;28.05
54816;BME280;40715;55.752;37.884;2023-03-17T07:02:35;99677.03;;;29.44;28.29
54816;BME280;40715;55.752;37.884;2023-03-17T07:05:02;99684.44;;;29.42;28.18
54816;BME280;40715;55.752;37.884;2023-03-17T07:07:30;99689.25;;;29.49;28.30
54816;BME280;40715;55.752;37.884;2023-03-17T07:09:57;99677.72;;;29.47;28.12
54816;BME280;40715;55.752;37.884;2023-03-17T07:12:25;99683.22;;;29.55;28.13
54816;BME280;40715;55.752;37.884;2023-03-17T07:14:52;99685.78;;;29.56;28.14
54816;BME280;40715;55.752;37.884;2023-03-17T07:17:19;99694.28;;;29.61;27.93
54816;BME280;40715;55.752;37.884;2023-03-17T07:19:46;99702.31;;;29.63;27.96
54816;BME280;40715;55.752;37.884;2023-03-17T07:22:22;99695.00;;;29.64;27.86
54816;BME280;40715;55.752;37.884;2023-03-17T07:24:49;99709.66;;;29.71;27.60
54816;BME280;40715;55.752;37.884;2023-03-17T07:27:18;99716.56;;;29.65;27.90
54816;BME280;40715;55.752;37.884;2023-03-17T07:29:49;99710.44;;;29.63;27.92
54816;BME280;40715;55.752;37.884;2023-03-17T07:32:16;99723.72;;;29.66;27.74
54816;BME280;40715;55.752;37.884;2023-03-17T07:34:43;99720.13;;;29.66;27.70
54816;BME280;40715;55.752;37.884;2023-03-17T07:37:10;99708.34;;;29.57;27.85
54816;BME280;40715;55.752;37.884;2023-03-17T07:39:38;99730.28;;;29.64;28.23
54816;BME280;40715;55.752;37.884;2023-03-17T07:42:05;99707.66;;;29.55;27.78
54816;BME280;40715;55.752;37.884;2023-03-17T07:44:32;99722.84;;;29.66;28.36
54816;BME280;40715;55.752;37.884;2023-03-17T07:47:00;99726.56;;;29.65;28.38
54816;BME280;40715;55.752;37.884;2023-03-17T07:49:27;99735.72;;;29.64;28.13
54816;BME280;40715;55.752;37.884;2023-03-17T07:52:08;99725.38;;;29.67;28.25
54816;BME280;40715;55.752;37.884;2023-03-17T07:54:35;99717.41;;;29.66;28.11
54816;BME280;40715;55.752;37.884;2023-03-17T07:57:04;99737.50;;;29.73;28.22
54816;BME280;40715;55.752;37.884;2023-03-17T07:59:33;99734.19;;;29.79;28.45
54816;BME280;40715;55.752;37.884;2023-03-17T08:02:00;99729.69;;;29.88;28.17
54816;BME280;40715;55.752;37.884;2023-03-17T08:04:27;99731.31;;;29.99;28.13
54816;BME280;40715;55.752;37.884;2023-03-17T08:06:55;99743.09;;;30.07;28.30
54816;BME280;40715;55.752;37.884;2023-03-17T08:09:22;99750.47;;;30.15;27.96
54816;BME280;40715;55.752;37.884;2023-03-17T08:11:50;99764.94;;;30.24;27.92
54816;BME280;40715;55.752;37.884;2023-03-17T08:14:17;99763.31;;;30.31;27.96
54816;BME280;40715;55.752;37.884;2023-03-17T08:16:44;99769.44;;;30.33;27.81
54816;BME280;40715;55.752;37.884;2023-03-17T08:19:12;99780.38;;;30.41;27.50
54816;BME280;40715;55.752;37.884;2023-03-17T08:21:38;99781.84;;;30.54;27.59
54816;BME280;40715;55.752;37.884;2023-03-17T08:24:05;99789.41;;;30.68;27.36
54816;BME280;40715;55.752;37.884;2023-03-17T08:26:33;99788.66;;;30.84;27.17
54816;BME280;40715;55.752;37.884;2023-03-17T08:29:00;99785.22;;;31.08;26.62
54816;BME280;40715;55.752;37.884;2023-03-17T08:31:27;99797.09;;;31.42;26.31
54816;BME280;40715;55.752;37.884;2023-03-17T08:33:54;99796.69;;;31.79;26.06
54816;BME280;40715;55.752;37.884;2023-03-17T08:36:23;99800.34;;;32.38;25.17
54816;BME280;40715;55.752;37.884;2023-03-17T08:38:50;99803.81;;;33.04;24.15
54816;BME280;40715;55.752;37.884;2023-03-17T08:41:20;99808.16;;;33.38;23.84
54816;BME280;40715;55.752;37.884;2023-03-17T08:43:49;99810.13;;;33.52;23.79
54816;BME280;40715;55.752;37.884;2023-03-17T08:46:17;99826.22;;;33.79;23.28
54816;BME280;40715;55.752;37.884;2023-03-17T08:48:46;99827.31;;;33.93;23.11
54816;BME280;40715;55.752;37.884;2023-03-17T08:51:14;99828.16;;;33.93;23.30
54816;BME280;40715;55.752;37.884;2023-03-17T08:53:44;99825.66;;;33.83;23.33
54816;BME280;40715;55.752;37.884;2023-03-17T08:56:12;99826.09;;;33.64;23.51
54816;BME280;40715;55.752;37.884;2023-03-17T08:58:40;99833.31;;;33.57;23.35
54816;BME280;40715;55.752;37.884;2023-03-17T09:01:08;99824.72;;;33.36;23.46
54816;BME280;40715;55.752;37.884;2023-03-17T09:03:39;99830.56;;;33.25;23.73
54816;BME280;40715;55.752;37.884;2023-03-17T09:06:07;99824.22;;;33.16;24.02
54816;BME280;40715;55.752;37.884;2023-03-17T09:08:41;99830.59;;;33.09;23.73
54816;BME280;40715;55.752;37.884;2023-03-17T09:11:13;99825.31;;;33.07;23.70
54816;BME280;40715;55.752;37.884;2023-03-17T09:13:42;99830.59;;;33.00;23.96
54816;BME280;40715;55.752;37.884;2023-03-17T09:16:10;99835.56;;;32.97;23.74
54816;BME280;40715;55.752;37.884;2023-03-17T09:18:38;99833.22;;;32.77;24.06
54816;BME280;40715;55.752;37.884;2023-03-17T09:21:10;99849.75;;;32.34;24.64
54816;BME280;40715;55.752;37.884;2023-03-17T09:23:37;99855.34;;;32.00;24.78
54816;BME280;40715;55.752;37.884;2023-03-17T09:26:04;99869.78;;;31.84;25.18
54816;BME280;40715;55.752;37.884;2023-03-17T09:28:33;99854.72;;;31.63;25.56
54816;BME280;40715;55.752;37.884;2023-03-17T09:31:02;99848.88;;;31.50;25.74
54816;BME280;40715;55.752;37.884;2023-03-17T09:33:29;99859.94;;;31.48;25.42
54816;BME280;40715;55.752;37.884;2023-03-17T09:35:57;99865.16;;;31.42;25.76
54816;BME280;40715;55.752;37.884;2023-03-17T09:38:25;99863.28;;;31.34;25.76
54816;BME280;40715;55.752;37.884;2023-03-17T09:49:18;99876.13;;;31.24;25.68
54816;BME280;40715;55.752;37.884;2023-03-17T09:51:47;99861.97;;;31.12;25.67
54816;BME280;40715;55.752;37.884;2023-03-17T09:54:32;99871.00;;;31.21;25.68
54816;BME280;40715;55.752;37.884;2023-03-17T09:57:11;99864.50;;;31.13;26.17
54816;BME280;40715;55.752;37.884;2023-03-17T09:59:41;99871.28;;;31.09;26.11
54816;BME280;40715;55.752;37.884;2023-03-17T10:02:29;99878.97;;;31.14;25.77
54816;BME280;40715;55.752;37.884;2023-03-17T10:04:59;99889.81;;;31.06;26.01
54816;BME280;40715;55.752;37.884;2023-03-17T10:11:25;99887.44;;;31.11;25.84
54816;BME280;40715;55.752;37.884;2023-03-17T10:19:22;99887.66;;;30.91;25.82
54816;BME280;40715;55.752;37.884;2023-03-17T10:21:57;99905.75;;;30.83;25.86
54816;BME280;40715;55.752;37.884;2023-03-17T10:24:29;99898.63;;;30.81;25.66
54816;BME280;40715;55.752;37.884;2023-03-17T10:27:00;99892.66;;;30.78;25.70
54816;BME280;40715;55.752;37.884;2023-03-17T10:29:30;99907.97;;;30.79;25.83
54816;BME280;40715;55.752;37.884;2023-03-17T10:31:58;99888.22;;;30.77;25.75
54816;BME280;40715;55.752;37.884;2023-03-17T10:34:30;99897.56;;;30.74;25.55
54816;BME280;40715;55.752;37.884;2023-03-17T10:39:27;99907.22;;;30.69;25.95
54816;BME280;40715;55.752;37.884;2023-03-17T10:42:09;99911.31;;;30.73;25.98
54816;BME280;40715;55.752;37.884;2023-03-17T10:47:19;99915.66;;;30.66;26.23
54816;BME280;40715;55.752;37.884;2023-03-17T10:49:48;99919.34;;;30.56;26.08
54816;BME280;40715;55.752;37.884;2023-03-17T10:52:35;99914.28;;;30.61;25.86
54816;BME280;40715;55.752;37.884;2023-03-17T10:55:05;99920.13;;;30.49;26.08
54816;BME280;40715;55.752;37.884;2023-03-17T10:57:35;99916.19;;;30.43;26.14
54816;BME280;40715;55.752;37.884;2023-03-17T11:00:15;99916.00;;;30.44;25.96
54816;BME280;40715;55.752;37.884;2023-03-17T11:03:10;99919.34;;;30.56;26.39
54816;BME280;40715;55.752;37.884;2023-03-17T11:05:38;99929.50;;;30.36;25.99
54816;BME280;40715;55.752;37.884;2023-03-17T11:08:16;99925.38;;;30.32;26.23
54816;BME280;40715;55.752;37.884;2023-03-17T11:10:44;99915.56;;;30.21;26.18
54816;BME280;40715;55.752;37.884;2023-03-17T11:13:16;99924.19;;;30.17;26.63
54816;BME280;40715;55.752;37.884;2023-03-17T11:15:48;99937.31;;;30.21;26.52
54816;BME280;40715;55.752;37.884;2023-03-17T11:18:35;99942.31;;;30.26;26.24
54816;BME280;40715;55.752;37.884;2023-03-17T11:21:07;99941.38;;;30.17;26.46
54816;BME280;40715;55.752;37.884;2023-03-17T11:23:48;99941.38;;;30.17;26.42
54816;BME280;40715;55.752;37.884;2023-03-17T11:29:12;99946.41;;;30.12;26.35
54816;BME280;40715;55.752;37.884;2023-03-17T11:39:54;99938.56;;;30.09;26.62
54816;BME280;40715;55.752;37.884;2023-03-17T11:42:31;99940.88;;;30.04;26.52
54816;BME280;40715;55.752;37.884;2023-03-17T11:45:18;99939.88;;;30.05;26.77
54816;BME280;40715;55.752;37.884;2023-03-17T11:50:50;99951.88;;;30.02;26.82
54816;BME280;40715;55.752;37.884;2023-03-17T11:56:45;99949.31;;;30.01;27.04
54816;BME280;40715;55.752;37.884;2023-03-17T11:59:34;99946.28;;;30.04;27.40
54816;BME280;40715;55.752;37.884;2023-03-17T12:02:23;99956.09;;;30.15;27.46
54816;BME280;40715;55.752;37.884;2023-03-17T12:05:01;99954.28;;;30.05;27.56
54816;BME280;40715;55.752;37.884;2023-03-17T12:07:44;99956.47;;;30.02;27.87
54816;BME280;40715;55.752;37.884;2023-03-17T12:10:36;99959.19;;;30.20;27.54
54816;BME280;40715;55.752;37.884;2023-03-17T12:13:17;99957.25;;;30.12;27.76
54816;BME280;40715;55.752;37.884;2023-03-17T12:16:22;99953.34;;;30.24;27.63
54816;BME280;40715;55.752;37.884;2023-03-17T12:21:36;99953.38;;;30.15;27.86
54816;BME280;40715;55.752;37.884;2023-03-17T12:24:30;99971.00;;;30.28;28.03
54816;BME280;40715;55.752;37.884;2023-03-17T12:27:10;99961.75;;;30.21;27.93
54816;BME280;40715;55.752;37.884;2023-03-17T12:29:42;99968.44;;;30.55;28.20
54816;BME280;40715;55.752;37.884;2023-03-17T12:32:20;99966.69;;;31.08;27.66
54816;BME280;40715;55.752;37.884;2023-03-17T12:34:56;99970.16;;;31.44;27.03
54816;BME280;40715;55.752;37.884;2023-03-17T12:37:25;99980.38;;;31.69;26.77
54816;BME280;40715;55.752;37.884;2023-03-17T12:40:19;99971.78;;;31.90;26.22
54816;BME280;40715;55.752;37.884;2023-03-17T12:46:01;99970.22;;;32.22;26.22
54816;BME280;40715;55.752;37.884;2023-03-17T12:53:54;99975.78;;;31.69;26.45
54816;BME280;40715;55.752;37.884;2023-03-17T12:59:16;99987.25;;;31.55;26.16
54816;BME280;40715;55.752;37.884;2023-03-17T13:01:55;99994.94;;;31.33;26.31
54816;BME280;40715;55.752;37.884;2023-03-17T13:04:29;100002.66;;;31.20;26.77
54816;BME280;40715;55.752;37.884;2023-03-17T13:07:16;100000.56;;;31.13;26.63
54816;BME280;40715;55.752;37.884;2023-03-17T13:20:42;99994.84;;;30.98;26.56
54816;BME280;40715;55.752;37.884;2023-03-17T13:23:13;99995.13;;;30.95;26.74
54816;BME280;40715;55.752;37.884;2023-03-17T13:48:46;100019.56;;;30.87;26.29
54816;BME280;40715;55.752;37.884;2023-03-17T13:51:19;100025.84;;;30.88;25.85
54816;BME280;40715;55.752;37.884;2023-03-17T13:53:52;100022.97;;;30.89;25.89
54816;BME280;40715;55.752;37.884;2023-03-17T13:56:44;100032.28;;;30.87;25.80
54816;BME280;40715;55.752;37.884;2023-03-17T13:59:17;100033.53;;;30.92;25.62
54816;BME280;40715;55.752;37.884;2023-03-17T14:02:00;100031.38;;;30.96;25.98
54816;BME280;40715;55.752;37.884;2023-03-17T14:04:51;100040.31;;;31.06;25.70
54816;BME280;40715;55.752;37.884;2023-03-17T14:07:32;100038.38;;;30.98;25.58
54816;BME280;40715;55.752;37.884;2023-03-17T14:10:05;100043.16;;;30.87;25.50
54816;BME280;40715;55.752;37.884;2023-03-17T14:18:07;100060.66;;;30.84;25.24
54816;BME280;40715;55.752;37.884;2023-03-17T14:20:36;100056.84;;;30.77;25.02
54816;BME280;40715;55.752;37.884;2023-03-17T14:23:03;100055.59;;;30.71;25.18
54816;BME280;40715;55.752;37.884;2023-03-17T14:25:35;100066.78;;;30.68;25.03
54816;BME280;40715;55.752;37.884;2023-03-17T14:28:07;100059.66;;;30.67;24.94
54816;BME280;40715;55.752;37.884;2023-03-17T14:30:38;100073.09;;;30.69;24.72
54816;BME280;40715;55.752;37.884;2023-03-17T14:33:14;100061.72;;;30.55;24.88
54816;BME280;40715;55.752;37.884;2023-03-17T14:35:50;100056.75;;;30.51;25.02
54816;BME280;40715;55.752;37.884;2023-03-17T14:40:45;100086.81;;;30.49;25.03
54816;BME280;40715;55.752;37.884;2023-03-17T14:43:13;100086.09;;;30.47;25.05
54816;BME280;40715;55.752;37.884;2023-03-17T14:45:48;100087.28;;;30.44;24.76